createdAt,value
2023-05-08T00:01:22.618Z,7.51
2023-05-08T00:03:52.970Z,7.51
2023-05-08T00:06:21.449Z,7.48
2023-05-08T00:08:52.474Z,7.48
2023-05-08T00:11:20.992Z,7.47
2023-05-08T00:13:50.613Z,7.45
2023-05-08T00:16:18.907Z,7.44
2023-05-08T00:18:47.984Z,7.42
2023-05-08T00:21:17.166Z,7.41
2023-05-08T00:23:45.950Z,7.32
2023-05-08T00:26:15.117Z,7.32
2023-05-08T00:28:43.151Z,7.30
2023-05-08T00:31:14.358Z,7.27
2023-05-08T00:33:45.290Z,7.25
2023-05-08T00:36:15.976Z,7.24
2023-05-08T00:38:46.193Z,7.20
2023-05-08T00:41:16.553Z,7.21
2023-05-08T00:43:45.204Z,7.18
2023-05-08T00:46:16.512Z,7.17
2023-05-08T00:48:47.174Z,7.15
2023-05-08T00:51:16.585Z,7.10
2023-05-08T00:53:45.514Z,7.07
2023-05-08T00:56:15.362Z,7.07
2023-05-08T00:58:48.492Z,7.08
2023-05-08T01:01:19.304Z,7.04
2023-05-08T01:03:48.185Z,7.01
2023-05-08T01:06:17.471Z,7.00
2023-05-08T01:08:46.649Z,7.03
2023-05-08T01:11:21.877Z,7.01
2023-05-08T01:13:53.649Z,6.99
2023-05-08T01:16:30.727Z,6.96
2023-05-08T01:19:06.332Z,6.92
2023-05-08T01:21:40.352Z,6.87
2023-05-08T01:24:32.275Z,6.87
2023-05-08T01:27:26.897Z,6.87
2023-05-08T01:30:21.585Z,6.84
2023-05-08T01:32:57.155Z,6.80
2023-05-08T01:35:29.109Z,6.79
2023-05-08T01:38:00.758Z,6.71
2023-05-08T01:40:35.004Z,6.68
2023-05-08T01:43:09.901Z,6.63
2023-05-08T01:45:41.208Z,6.61
2023-05-08T01:48:13.075Z,6.59
2023-05-08T01:50:46.210Z,6.56
2023-05-08T01:53:18.577Z,6.55
2023-05-08T01:55:53.545Z,6.53
2023-05-08T01:58:22.671Z,6.48
2023-05-08T02:00:51.845Z,6.48
2023-05-08T02:03:22.775Z,6.44
2023-05-08T02:05:52.546Z,6.41
2023-05-08T02:08:24.014Z,6.39
2023-05-08T02:10:53.236Z,6.34
2023-05-08T02:13:23.636Z,6.32
2023-05-08T02:15:55.507Z,6.31
2023-05-08T02:18:27.863Z,6.29
2023-05-08T02:20:57.365Z,6.25
2023-05-08T02:23:27.263Z,6.26
2023-05-08T02:25:56.300Z,6.26
2023-05-08T02:28:25.387Z,6.25
2023-05-08T02:30:54.582Z,6.24
2023-05-08T02:33:25.236Z,6.21
2023-05-08T02:35:55.564Z,6.15
2023-05-08T02:38:25.942Z,6.15
2023-05-08T02:40:57.932Z,6.07
2023-05-08T02:43:27.882Z,6.10
2023-05-08T02:46:07.670Z,6.04
2023-05-08T02:48:44.517Z,6.03
2023-05-08T02:51:21.609Z,5.97
2023-05-08T02:53:54.261Z,5.98
2023-05-08T02:56:33.628Z,5.95
2023-05-08T02:59:11.224Z,5.94
2023-05-08T03:01:45.598Z,5.93
2023-05-08T03:04:23.455Z,5.94
2023-05-08T03:06:55.353Z,5.93
2023-05-08T03:09:27.946Z,5.93
2023-05-08T03:12:03.639Z,5.94
2023-05-08T03:14:33.872Z,5.90
2023-05-08T03:17:04.196Z,5.91
2023-05-08T03:19:35.707Z,5.87
2023-05-08T03:22:08.491Z,5.82
2023-05-08T03:24:38.566Z,5.78
2023-05-08T03:27:08.690Z,5.80
2023-05-08T03:29:37.794Z,5.77
2023-05-08T03:32:07.182Z,5.74
2023-05-08T03:34:36.928Z,5.78
2023-05-08T03:37:06.849Z,5.78
2023-05-08T03:39:34.988Z,5.77
2023-05-08T03:42:03.617Z,5.77
2023-05-08T03:44:33.492Z,5.82
2023-05-08T03:47:02.833Z,5.89
2023-05-08T03:49:32.404Z,6.01
2023-05-08T03:52:01.694Z,6.14
2023-05-08T03:54:39.308Z,6.28
2023-05-08T03:57:09.278Z,6.41
2023-05-08T03:59:44.275Z,6.53
2023-05-08T04:02:22.553Z,6.66
2023-05-08T04:04:59.186Z,6.84
2023-05-08T04:07:30.748Z,7.01
2023-05-08T04:10:06.255Z,7.17
2023-05-08T04:12:42.242Z,7.40
2023-05-08T04:15:13.386Z,7.62
2023-05-08T04:17:44.858Z,7.73
2023-05-08T04:20:20.030Z,7.78
2023-05-08T04:22:49.365Z,7.89
2023-05-08T04:25:22.262Z,8.02
2023-05-08T04:27:52.660Z,8.06
2023-05-08T04:30:22.494Z,8.19
2023-05-08T04:32:53.596Z,8.31
2023-05-08T04:35:21.825Z,8.51
2023-05-08T04:37:50.424Z,8.55
2023-05-08T04:40:21.569Z,8.65
2023-05-08T04:42:49.921Z,8.68
2023-05-08T04:45:19.580Z,8.65
2023-05-08T04:47:48.047Z,8.67
2023-05-08T04:50:16.576Z,8.61
2023-05-08T04:52:44.850Z,8.72
2023-05-08T04:55:13.487Z,8.92
2023-05-08T04:57:44.569Z,8.95
2023-05-08T05:00:14.946Z,9.31
2023-05-08T05:02:43.255Z,9.31
2023-05-08T05:05:11.815Z,9.27
2023-05-08T05:07:40.638Z,9.20
2023-05-08T05:10:10.409Z,9.61
2023-05-08T05:12:39.626Z,9.87
2023-05-08T05:15:11.604Z,9.99
2023-05-08T05:17:40.688Z,10.22
2023-05-08T05:20:09.974Z,10.08
2023-05-08T05:22:38.704Z,10.06
2023-05-08T05:25:07.669Z,10.39
2023-05-08T05:27:37.250Z,10.68
2023-05-08T05:30:07.035Z,10.95
2023-05-08T05:32:36.378Z,10.91
2023-05-08T05:35:04.695Z,10.81
2023-05-08T05:37:33.264Z,11.01
2023-05-08T05:40:01.327Z,11.11
2023-05-08T05:42:29.514Z,11.25
2023-05-08T05:44:57.750Z,11.43
2023-05-08T05:47:25.978Z,11.60
2023-05-08T05:49:55.770Z,11.77
2023-05-08T05:52:23.775Z,11.74
2023-05-08T05:54:52.454Z,11.47
2023-05-08T05:57:21.647Z,11.34
2023-05-08T05:59:49.690Z,11.29
2023-05-08T06:02:20.068Z,11.26
2023-05-08T06:04:50.366Z,11.63
2023-05-08T06:07:22.646Z,11.89
2023-05-08T06:09:55.644Z,12.11
2023-05-08T06:12:25.532Z,12.24
2023-05-08T06:14:55.749Z,12.66
2023-05-08T06:17:24.619Z,12.55
2023-05-08T06:19:59.109Z,12.87
2023-05-08T06:22:30.328Z,12.82
2023-05-08T06:24:58.920Z,12.84
2023-05-08T06:27:27.257Z,12.96
2023-05-08T06:29:55.515Z,12.97
2023-05-08T06:32:23.651Z,12.93
2023-05-08T06:34:51.858Z,13.06
2023-05-08T06:37:21.157Z,13.11
2023-05-08T06:40:00.345Z,13.27
2023-05-08T06:42:39.293Z,12.97
2023-05-08T06:45:08.805Z,12.96
2023-05-08T06:47:38.409Z,13.42
2023-05-08T06:50:08.010Z,13.82
2023-05-08T06:52:36.178Z,13.90
2023-05-08T06:55:06.903Z,14.12
2023-05-08T06:57:34.943Z,13.89
2023-05-08T07:00:03.250Z,13.72
2023-05-08T07:02:31.690Z,13.86
2023-05-08T07:04:59.830Z,14.02
2023-05-08T07:07:29.210Z,14.34
2023-05-08T07:09:57.452Z,14.42
2023-05-08T07:12:27.054Z,14.60
2023-05-08T07:14:57.263Z,14.65
2023-05-08T07:17:29.540Z,14.48
2023-05-08T07:19:58.062Z,14.44
2023-05-08T07:22:26.519Z,14.38
2023-05-08T07:24:54.776Z,14.33
2023-05-08T07:27:23.477Z,14.36
2023-05-08T07:29:53.840Z,14.37
2023-05-08T07:32:21.966Z,14.40
2023-05-08T07:34:50.261Z,14.86
2023-05-08T07:37:20.654Z,15.13
2023-05-08T07:39:48.888Z,15.30
2023-05-08T07:42:18.209Z,14.84
2023-05-08T07:44:54.311Z,14.51
2023-05-08T07:47:24.860Z,14.63
2023-05-08T07:49:52.946Z,14.72
2023-05-08T07:52:23.917Z,14.64
2023-05-08T07:54:52.204Z,14.44
2023-05-08T07:57:26.197Z,14.85
2023-05-08T07:59:54.263Z,15.15
2023-05-08T08:02:27.234Z,14.95
2023-05-08T08:04:55.832Z,15.12
2023-05-08T08:07:23.992Z,15.09
2023-05-08T08:09:52.723Z,14.89
2023-05-08T08:12:21.568Z,15.00
2023-05-08T08:14:49.862Z,15.13
2023-05-08T08:17:18.341Z,15.44
2023-05-08T08:19:48.039Z,15.61
2023-05-08T08:22:17.303Z,15.33
2023-05-08T08:24:47.978Z,15.50
2023-05-08T08:27:19.349Z,15.50
2023-05-08T08:29:47.782Z,15.32
2023-05-08T08:32:15.870Z,15.18
2023-05-08T08:34:44.394Z,15.13
2023-05-08T08:37:14.237Z,15.13
2023-05-08T08:39:42.399Z,15.19
2023-05-08T08:42:10.665Z,15.64
2023-05-08T08:44:40.062Z,15.73
2023-05-08T08:47:11.290Z,15.43
2023-05-08T08:49:49.245Z,15.13
2023-05-08T08:52:24.133Z,14.81
2023-05-08T08:54:53.744Z,15.06
2023-05-08T08:57:22.829Z,14.91
2023-05-08T08:59:52.377Z,15.18
2023-05-08T09:02:21.725Z,15.58
2023-05-08T09:04:52.786Z,15.75
2023-05-08T09:07:22.148Z,15.91
2023-05-08T09:09:51.129Z,15.94
2023-05-08T09:12:19.228Z,15.91
2023-05-08T09:14:47.492Z,16.09
2023-05-08T09:17:16.358Z,16.59
2023-05-08T09:19:46.244Z,16.62
2023-05-08T09:22:16.875Z,16.60
2023-05-08T09:25:00.182Z,16.74
2023-05-08T09:27:29.829Z,16.88
2023-05-08T09:30:03.521Z,16.76
2023-05-08T09:32:33.192Z,17.11
2023-05-08T09:35:02.438Z,17.70
2023-05-08T09:37:32.060Z,17.73
2023-05-08T09:40:32.068Z,16.92
2023-05-08T09:43:14.182Z,16.77
2023-05-08T09:45:42.811Z,17.00
2023-05-08T09:48:13.040Z,16.97
2023-05-08T09:50:43.636Z,16.83
2023-05-08T09:53:11.985Z,16.84
2023-05-08T09:55:51.303Z,17.04
2023-05-08T09:58:20.471Z,17.29
2023-05-08T10:00:49.228Z,17.00
2023-05-08T10:03:17.340Z,16.84
2023-05-08T10:05:48.047Z,16.85
2023-05-08T10:08:22.743Z,16.79
2023-05-08T10:10:53.953Z,16.57
2023-05-08T10:13:22.625Z,16.62
2023-05-08T10:15:54.580Z,16.88
2023-05-08T10:18:26.085Z,17.10
2023-05-08T10:20:56.855Z,17.04
2023-05-08T10:23:27.330Z,16.95
2023-05-08T10:25:57.933Z,17.16
2023-05-08T10:28:33.475Z,17.22
2023-05-08T10:31:05.484Z,17.07
2023-05-08T10:33:35.435Z,17.22
2023-05-08T10:36:04.947Z,17.28
2023-05-08T10:38:35.561Z,17.48
2023-05-08T10:41:05.835Z,17.49
2023-05-08T10:43:35.222Z,17.60
2023-05-08T10:46:07.051Z,17.50
2023-05-08T10:48:43.965Z,17.05
2023-05-08T10:51:18.886Z,17.18
2023-05-08T10:53:52.769Z,17.08
2023-05-08T10:56:28.366Z,16.97
2023-05-08T10:58:57.473Z,17.07
2023-05-08T11:01:26.973Z,17.43
2023-05-08T11:03:56.754Z,17.84
2023-05-08T11:06:46.927Z,17.60
2023-05-08T11:09:23.236Z,17.52
2023-05-08T11:12:05.400Z,17.34
2023-05-08T11:14:34.936Z,17.02
2023-05-08T11:17:10.716Z,17.19
2023-05-08T11:19:40.128Z,17.25
2023-05-08T11:22:23.945Z,17.19
2023-05-08T11:24:55.633Z,17.43
2023-05-08T11:27:42.963Z,17.45
2023-05-08T11:30:28.714Z,17.62
2023-05-08T11:33:02.643Z,17.80
2023-05-08T11:35:48.552Z,17.65
2023-05-08T11:38:18.624Z,17.84
2023-05-08T11:40:54.021Z,18.06
2023-05-08T11:43:51.688Z,17.97
2023-05-08T11:46:23.019Z,18.00
2023-05-08T11:49:00.040Z,17.65
2023-05-08T11:51:32.767Z,17.90
2023-05-08T11:54:02.650Z,18.25
2023-05-08T11:56:32.046Z,18.34
2023-05-08T11:59:05.628Z,18.37
2023-05-08T12:01:34.212Z,18.16
2023-05-08T12:04:03.539Z,17.93
2023-05-08T12:06:33.105Z,17.76
2023-05-08T12:09:04.949Z,17.35
2023-05-08T12:11:33.089Z,17.27
2023-05-08T12:14:01.249Z,17.38
2023-05-08T12:16:31.232Z,17.32
2023-05-08T12:18:59.606Z,17.21
2023-05-08T12:21:29.510Z,17.15
2023-05-08T12:23:58.745Z,17.04
2023-05-08T12:26:27.731Z,16.92
2023-05-08T12:28:57.094Z,16.90
2023-05-08T12:31:27.091Z,16.97
2023-05-08T12:33:57.573Z,17.01
2023-05-08T12:36:26.709Z,17.01
2023-05-08T12:38:54.989Z,16.98
2023-05-08T12:41:26.342Z,17.05
2023-05-08T12:43:57.206Z,17.14
2023-05-08T12:46:29.618Z,17.21
2023-05-08T12:49:07.288Z,17.21
2023-05-08T12:51:35.505Z,17.14
2023-05-08T12:54:04.070Z,17.12
2023-05-08T12:56:32.354Z,17.08
2023-05-08T12:59:02.224Z,17.18
2023-05-08T13:01:30.725Z,17.24
2023-05-08T13:04:02.999Z,17.18
2023-05-08T13:06:37.813Z,17.24
2023-05-08T13:09:08.156Z,17.29
2023-05-08T13:11:39.867Z,17.35
2023-05-08T13:14:08.776Z,17.28
2023-05-08T13:16:43.870Z,17.32
2023-05-08T13:19:12.113Z,17.22
2023-05-08T13:21:41.985Z,17.24
2023-05-08T13:24:09.971Z,17.24
2023-05-08T13:26:40.587Z,17.16
2023-05-08T13:29:08.907Z,17.16
2023-05-08T13:31:39.312Z,17.28
2023-05-08T13:34:07.399Z,17.25
2023-05-08T13:36:35.624Z,17.21
2023-05-08T13:39:05.754Z,17.22
2023-05-08T13:41:57.471Z,17.19
2023-05-08T13:44:49.407Z,17.22
2023-05-08T13:47:18.859Z,17.21
2023-05-08T13:49:50.904Z,17.18
2023-05-08T13:52:22.518Z,17.11
2023-05-08T13:54:56.152Z,17.05
2023-05-08T13:57:24.588Z,17.00
2023-05-08T14:00:00.047Z,17.05
2023-05-08T14:02:32.088Z,17.02
2023-05-08T14:05:22.543Z,17.07
2023-05-08T14:07:51.169Z,17.11
2023-05-08T14:10:20.998Z,17.15
2023-05-08T14:12:56.027Z,17.19
2023-05-08T14:15:29.165Z,17.25
2023-05-08T14:18:07.176Z,17.29
2023-05-08T14:20:48.957Z,17.35
2023-05-08T14:23:20.416Z,17.35
2023-05-08T14:25:49.996Z,17.35
2023-05-08T14:28:18.593Z,17.29
2023-05-08T14:30:47.616Z,17.28
2023-05-08T14:33:18.657Z,17.34
2023-05-08T14:35:48.418Z,17.29
2023-05-08T14:38:16.870Z,17.27
2023-05-08T14:40:45.918Z,17.24
2023-05-08T14:43:28.004Z,17.25
2023-05-08T14:45:58.326Z,17.34
2023-05-08T14:48:27.430Z,17.42
2023-05-08T14:50:55.758Z,17.43
2023-05-08T14:53:25.259Z,17.43
2023-05-08T14:55:54.904Z,17.55
2023-05-08T14:58:27.678Z,17.58
2023-05-08T15:00:55.823Z,17.49
2023-05-08T15:03:24.228Z,17.39
2023-05-08T15:05:58.689Z,17.46
2023-05-08T15:08:29.737Z,17.50
2023-05-08T15:10:59.339Z,17.48
2023-05-08T15:13:32.032Z,17.41
2023-05-08T15:16:00.686Z,17.34
2023-05-08T15:18:29.529Z,17.35
2023-05-08T15:20:59.950Z,17.41
2023-05-08T15:23:28.344Z,17.43
2023-05-08T15:25:57.090Z,17.39
2023-05-08T15:28:25.335Z,17.38
2023-05-08T15:30:58.562Z,17.46
2023-05-08T15:33:28.856Z,17.46
2023-05-08T15:35:58.780Z,17.43
2023-05-08T15:38:27.677Z,17.42
2023-05-08T15:40:56.836Z,17.35
2023-05-08T15:43:28.164Z,17.32
2023-05-08T15:45:58.340Z,17.31
2023-05-08T15:48:35.805Z,17.36
2023-05-08T15:51:04.315Z,17.31
2023-05-08T15:53:34.299Z,17.31
2023-05-08T15:56:05.121Z,17.36
2023-05-08T15:58:35.168Z,17.34
2023-05-08T16:01:06.134Z,17.29
2023-05-08T16:03:35.616Z,17.34
2023-05-08T16:06:03.992Z,17.36
2023-05-08T16:08:32.720Z,17.34
2023-05-08T16:11:01.424Z,17.29
2023-05-08T16:13:31.199Z,17.27
2023-05-08T16:16:05.471Z,17.24
2023-05-08T16:18:36.351Z,17.18
2023-05-08T16:21:09.766Z,17.18
2023-05-08T16:23:38.440Z,17.15
2023-05-08T16:26:07.358Z,17.11
2023-05-08T16:28:35.861Z,17.08
2023-05-08T16:31:07.701Z,17.10
2023-05-08T16:33:35.947Z,17.18
2023-05-08T16:36:08.036Z,17.15
2023-05-08T16:38:39.383Z,17.14
2023-05-08T16:41:10.260Z,17.12
2023-05-08T16:43:38.841Z,17.10
2023-05-08T16:46:11.376Z,17.04
2023-05-08T16:48:39.742Z,16.98
2023-05-08T16:51:08.162Z,16.94
2023-05-08T16:53:36.481Z,16.91
2023-05-08T16:56:06.697Z,16.85
2023-05-08T16:58:43.214Z,16.84
2023-05-08T17:01:13.102Z,16.84
2023-05-08T17:03:50.825Z,16.81
2023-05-08T17:06:20.725Z,16.83
2023-05-08T17:08:51.775Z,16.79
2023-05-08T17:11:21.917Z,16.76
2023-05-08T17:13:52.161Z,16.70
2023-05-08T17:16:24.941Z,16.71
2023-05-08T17:18:57.720Z,16.69
2023-05-08T17:21:26.144Z,16.64
2023-05-08T17:23:54.498Z,16.57
2023-05-08T17:26:25.405Z,16.52
2023-05-08T17:28:55.525Z,16.52
2023-05-08T17:31:26.041Z,16.49
2023-05-08T17:34:01.500Z,16.43
2023-05-08T17:36:29.925Z,16.43
2023-05-08T17:38:58.274Z,16.40
2023-05-08T17:41:26.915Z,16.36
2023-05-08T17:43:56.009Z,16.33
2023-05-08T17:46:26.222Z,16.32
2023-05-08T17:48:55.737Z,16.29
2023-05-08T17:51:24.972Z,16.23
2023-05-08T17:53:54.922Z,16.16
2023-05-08T17:56:23.511Z,16.16
2023-05-08T17:58:53.084Z,16.14
2023-05-08T18:01:21.810Z,16.08
2023-05-08T18:03:51.846Z,16.05
2023-05-08T18:06:22.158Z,15.95
2023-05-08T18:08:50.789Z,15.90
2023-05-08T18:11:27.620Z,15.85
2023-05-08T18:13:58.501Z,15.79
2023-05-08T18:16:26.622Z,15.71
2023-05-08T18:19:07.722Z,15.64
2023-05-08T18:21:38.766Z,15.58
2023-05-08T18:24:11.172Z,15.57
2023-05-08T18:26:40.190Z,15.46
2023-05-08T18:29:10.267Z,15.40
2023-05-08T18:31:38.667Z,15.33
2023-05-08T18:34:10.076Z,15.27
2023-05-08T18:36:54.196Z,15.19
2023-05-08T18:39:24.485Z,15.09
2023-05-08T18:41:52.782Z,15.02
2023-05-08T18:44:20.882Z,14.93
2023-05-08T18:46:49.359Z,14.86
2023-05-08T18:49:19.086Z,14.79
2023-05-08T18:51:49.501Z,14.69
2023-05-08T18:54:17.731Z,14.63
2023-05-08T18:56:46.036Z,14.56
2023-05-08T18:59:14.022Z,14.48
2023-05-08T19:01:44.070Z,14.38
2023-05-08T19:04:26.557Z,14.30
2023-05-08T19:06:56.772Z,14.27
2023-05-08T19:09:27.941Z,14.26
2023-05-08T19:11:56.290Z,14.16
2023-05-08T19:14:25.546Z,14.10
2023-05-08T19:16:58.289Z,14.00
2023-05-08T19:19:27.682Z,13.96
2023-05-08T19:22:00.560Z,13.96
2023-05-08T19:24:31.962Z,13.92
2023-05-08T19:27:00.197Z,13.88
2023-05-08T19:29:28.303Z,13.82
2023-05-08T19:31:57.727Z,13.79
2023-05-08T19:34:26.194Z,13.73
2023-05-08T19:36:54.337Z,13.69
2023-05-08T19:39:23.880Z,13.58
2023-05-08T19:41:53.116Z,13.55
2023-05-08T19:44:26.359Z,13.49
2023-05-08T19:46:54.952Z,13.41
2023-05-08T19:49:24.589Z,13.37
2023-05-08T19:51:53.279Z,13.32
2023-05-08T19:54:24.091Z,13.30
2023-05-08T19:56:52.575Z,13.26
2023-05-08T19:59:20.938Z,13.17
2023-05-08T20:01:50.345Z,13.11
2023-05-08T20:04:19.804Z,13.06
2023-05-08T20:06:48.187Z,13.01
2023-05-08T20:09:17.218Z,12.99
2023-05-08T20:11:47.185Z,12.90
2023-05-08T20:14:15.839Z,12.82
2023-05-08T20:16:44.532Z,12.80
2023-05-08T20:19:12.905Z,12.80
2023-05-08T20:21:46.074Z,12.80
2023-05-08T20:24:15.184Z,12.75
2023-05-08T20:26:43.469Z,12.70
2023-05-08T20:29:13.084Z,12.65
2023-05-08T20:31:42.453Z,12.63
2023-05-08T20:34:10.929Z,12.58
2023-05-08T20:36:39.639Z,12.53
2023-05-08T20:39:09.238Z,12.52
2023-05-08T20:41:41.361Z,12.48
2023-05-08T20:44:12.536Z,12.48
2023-05-08T20:46:44.574Z,12.36
2023-05-08T20:49:15.284Z,12.36
2023-05-08T20:51:43.335Z,12.38
2023-05-08T20:54:11.426Z,12.32
2023-05-08T20:56:40.967Z,12.31
2023-05-08T20:59:09.598Z,12.24
2023-05-08T21:01:39.202Z,12.21
2023-05-08T21:04:09.225Z,12.18
2023-05-08T21:06:37.898Z,12.18
2023-05-08T21:09:07.282Z,12.12
2023-05-08T21:11:35.348Z,12.10
2023-05-08T21:14:03.500Z,12.10
2023-05-08T21:16:31.956Z,12.04
2023-05-08T21:19:00.076Z,11.98
2023-05-08T21:21:31.766Z,11.93
2023-05-08T21:24:02.018Z,11.87
2023-05-08T21:26:30.281Z,11.87
2023-05-08T21:29:00.164Z,11.87
2023-05-08T21:31:28.898Z,11.83
2023-05-08T21:33:57.608Z,11.83
2023-05-08T21:36:25.822Z,11.80
2023-05-08T21:38:56.726Z,11.77
2023-05-08T21:41:25.125Z,11.73
2023-05-08T21:43:53.282Z,11.70
2023-05-08T21:46:21.847Z,11.66
2023-05-08T21:48:56.593Z,11.63
2023-05-08T21:51:24.932Z,11.62
2023-05-08T21:53:54.696Z,11.53
2023-05-08T21:56:24.184Z,11.47
2023-05-08T21:58:52.937Z,11.42
2023-05-08T22:01:22.077Z,11.42
2023-05-08T22:03:50.778Z,11.36
2023-05-08T22:06:19.118Z,11.31
2023-05-08T22:08:47.101Z,11.25
2023-05-08T22:11:16.635Z,11.19
2023-05-08T22:13:46.497Z,11.18
2023-05-08T22:16:15.562Z,11.11
2023-05-08T22:18:44.121Z,11.05
2023-05-08T22:21:15.025Z,10.99
2023-05-08T22:23:46.778Z,10.95
2023-05-08T22:26:14.787Z,10.97
2023-05-08T22:28:43.570Z,10.92
2023-05-08T22:31:14.999Z,10.87
2023-05-08T22:33:43.220Z,10.81
2023-05-08T22:36:12.900Z,10.80
2023-05-08T22:38:41.944Z,10.77
2023-05-08T22:41:10.941Z,10.74
2023-05-08T22:43:40.690Z,10.71
2023-05-08T22:46:09.221Z,10.67
2023-05-08T22:48:39.002Z,10.67
2023-05-08T22:51:10.510Z,10.66
2023-05-08T22:53:38.549Z,10.61
2023-05-08T22:56:08.030Z,10.57
2023-05-08T22:58:36.090Z,10.56
2023-05-08T23:01:04.633Z,10.52
2023-05-08T23:03:32.875Z,10.49
2023-05-08T23:06:03.167Z,10.45
2023-05-08T23:08:31.563Z,10.42
2023-05-08T23:11:01.186Z,10.37
2023-05-08T23:13:31.944Z,10.34
2023-05-08T23:16:00.151Z,10.33
2023-05-08T23:18:28.264Z,10.32
2023-05-08T23:20:56.317Z,10.25
2023-05-08T23:23:26.232Z,10.23
2023-05-08T23:25:54.620Z,10.20
2023-05-08T23:28:22.919Z,10.18
2023-05-08T23:30:51.158Z,10.10
2023-05-08T23:33:19.961Z,10.06
2023-05-08T23:35:48.334Z,10.03
2023-05-08T23:38:16.539Z,10.01
2023-05-08T23:40:47.507Z,9.95
2023-05-08T23:43:16.226Z,9.91
2023-05-08T23:45:44.438Z,9.87
2023-05-08T23:48:13.470Z,9.84
2023-05-08T23:50:42.280Z,9.81
2023-05-08T23:53:10.926Z,9.78
2023-05-08T23:55:39.376Z,9.75
2023-05-08T23:58:08.676Z,9.74
